createdAt,value
2023-02-02T00:00:27.642Z,5.35
2023-02-02T00:02:54.307Z,6.80
2023-02-02T00:05:21.041Z,5.38
2023-02-02T00:07:47.671Z,3.50
2023-02-02T00:10:14.315Z,5.32
2023-02-02T00:12:40.967Z,4.63
2023-02-02T00:15:08.163Z,6.80
2023-02-02T00:17:34.805Z,4.70
2023-02-02T00:20:01.485Z,4.65
2023-02-02T00:25:11.779Z,5.00
2023-02-02T00:27:38.434Z,5.28
2023-02-02T00:30:05.954Z,5.57
2023-02-02T00:32:32.523Z,4.50
2023-02-02T00:34:59.086Z,4.40
2023-02-02T00:37:25.797Z,4.70
2023-02-02T00:39:52.386Z,4.53
2023-02-02T00:42:18.951Z,3.25
2023-02-02T00:45:04.183Z,5.75
2023-02-02T00:47:33.644Z,5.90
2023-02-02T00:50:00.419Z,5.10
2023-02-02T00:52:27.274Z,3.28
2023-02-02T00:54:53.982Z,3.88
2023-02-02T00:57:20.728Z,4.65
2023-02-02T00:59:47.425Z,5.32
2023-02-02T01:02:14.190Z,5.05
2023-02-02T01:04:41.095Z,5.63
2023-02-02T01:07:08.178Z,4.45
2023-02-02T01:09:34.812Z,3.45
2023-02-02T01:12:01.448Z,5.25
2023-02-02T01:14:28.128Z,3.97
2023-02-02T01:16:54.731Z,4.07
2023-02-02T01:23:02.497Z,4.35
2023-02-02T01:25:30.439Z,4.97
2023-02-02T01:27:57.052Z,2.97
2023-02-02T01:33:07.647Z,2.65
2023-02-02T01:35:34.259Z,5.63
2023-02-02T01:38:01.078Z,5.07
2023-02-02T01:40:27.745Z,3.63
2023-02-02T01:42:54.303Z,4.18
2023-02-02T01:45:27.932Z,3.53
2023-02-02T01:48:00.204Z,3.97
2023-02-02T01:50:32.400Z,3.10
2023-02-02T01:53:01.608Z,3.13
2023-02-02T01:55:31.029Z,4.38
2023-02-02T01:58:05.259Z,3.08
2023-02-02T02:00:31.997Z,4.30
2023-02-02T02:03:13.444Z,4.38
2023-02-02T02:05:49.395Z,4.07
2023-02-02T02:08:23.543Z,3.83
2023-02-02T02:10:50.445Z,3.30
2023-02-02T02:13:17.987Z,3.67
2023-02-02T02:16:20.355Z,3.30
2023-02-02T02:19:03.843Z,3.80
2023-02-02T02:22:05.527Z,5.85
2023-02-02T02:25:28.307Z,4.10
2023-02-02T02:31:01.362Z,3.67
2023-02-02T02:33:34.047Z,4.07
2023-02-02T02:36:31.824Z,3.00
2023-02-02T02:39:19.724Z,2.95
2023-02-02T02:41:52.470Z,3.42
2023-02-02T02:44:21.120Z,3.72
2023-02-02T02:46:49.284Z,3.45
2023-02-02T02:49:16.824Z,4.65
2023-02-02T02:51:53.848Z,4.35
2023-02-02T02:54:29.655Z,3.35
2023-02-02T02:57:30.471Z,3.53
2023-02-02T03:00:02.617Z,3.58
2023-02-02T03:02:46.430Z,2.97
2023-02-02T03:05:16.032Z,3.45
2023-02-02T03:07:44.563Z,3.83
2023-02-02T03:10:14.631Z,3.97
2023-02-02T03:12:49.676Z,5.25
2023-02-02T03:15:17.225Z,3.20
2023-02-02T03:17:46.587Z,3.75
2023-02-02T03:20:13.762Z,3.53
2023-02-02T03:22:40.417Z,3.35
2023-02-02T03:25:10.791Z,2.47
2023-02-02T03:27:39.103Z,2.95
2023-02-02T03:30:08.502Z,4.78
2023-02-02T03:32:35.461Z,3.40
2023-02-02T03:35:02.099Z,3.83
2023-02-02T03:37:28.853Z,3.97
2023-02-02T03:39:55.473Z,3.72
2023-02-02T03:42:22.128Z,2.70
2023-02-02T03:44:48.912Z,3.60
2023-02-02T03:47:15.630Z,3.55
2023-02-02T03:49:42.206Z,4.00
2023-02-02T03:52:09.062Z,3.42
2023-02-02T03:54:35.678Z,2.47
2023-02-02T03:57:02.299Z,5.55
2023-02-02T03:59:28.960Z,4.68
2023-02-02T04:01:55.689Z,3.35
2023-02-02T04:04:22.296Z,2.90
2023-02-02T04:06:48.926Z,3.50
2023-02-02T04:09:15.563Z,3.90
2023-02-02T04:11:42.209Z,3.90
2023-02-02T04:14:10.245Z,4.50
2023-02-02T04:16:37.689Z,3.00
2023-02-02T04:19:04.948Z,2.83
2023-02-02T04:21:31.968Z,2.72
2023-02-02T04:23:58.752Z,3.40
2023-02-02T04:26:28.473Z,2.70
2023-02-02T04:28:55.228Z,3.17
2023-02-02T04:31:21.980Z,3.83
2023-02-02T04:33:48.583Z,2.55
2023-02-02T04:36:15.358Z,4.53
2023-02-02T04:38:42.046Z,4.32
2023-02-02T04:41:11.935Z,2.97
2023-02-02T04:43:38.918Z,3.63
2023-02-02T04:46:05.675Z,2.72
2023-02-02T04:48:32.311Z,2.83
2023-02-02T04:51:03.590Z,3.22
2023-02-02T04:53:30.747Z,2.47
2023-02-02T04:55:57.604Z,4.25
2023-02-02T04:58:24.549Z,2.88
2023-02-02T05:00:51.230Z,4.15
2023-02-02T05:03:17.816Z,3.10
2023-02-02T05:05:44.427Z,2.95
2023-02-02T05:08:11.962Z,4.22
2023-02-02T05:10:42.122Z,2.67
2023-02-02T05:13:09.623Z,2.90
2023-02-02T05:15:36.337Z,3.13
2023-02-02T05:18:03.101Z,3.95
2023-02-02T05:20:29.749Z,2.38
2023-02-02T05:22:56.345Z,3.55
2023-02-02T05:25:23.102Z,4.10
2023-02-02T05:27:49.840Z,2.88
2023-02-02T05:30:17.084Z,3.17
2023-02-02T05:32:43.759Z,3.67
2023-02-02T05:35:10.635Z,2.47
2023-02-02T05:37:37.328Z,4.10
2023-02-02T05:40:05.184Z,3.80
2023-02-02T05:42:32.042Z,3.83
2023-02-02T05:44:58.659Z,3.53
2023-02-02T05:47:25.259Z,4.28
2023-02-02T05:49:51.839Z,3.30
2023-02-02T05:52:20.589Z,3.33
2023-02-02T05:54:47.342Z,5.57
2023-02-02T05:57:13.984Z,3.38
2023-02-02T05:59:40.607Z,3.72
2023-02-02T06:02:07.232Z,2.28
2023-02-02T06:04:33.941Z,3.33
2023-02-02T06:07:00.630Z,6.32
2023-02-02T06:09:27.237Z,3.97
2023-02-02T06:11:53.828Z,6.38
2023-02-02T06:14:20.731Z,8.18
2023-02-02T06:16:47.316Z,10.23
2023-02-02T06:19:13.941Z,7.53
2023-02-02T06:21:40.559Z,8.20
2023-02-02T06:24:07.413Z,6.22
2023-02-02T06:26:34.184Z,5.32
2023-02-02T06:29:00.867Z,4.53
2023-02-02T06:31:27.605Z,8.52
2023-02-02T06:33:56.553Z,5.05
2023-02-02T06:36:24.740Z,6.90
2023-02-02T06:38:52.753Z,7.30
2023-02-02T06:41:20.560Z,6.63
2023-02-02T06:43:48.360Z,9.75
2023-02-02T06:46:15.933Z,4.68
2023-02-02T06:48:42.966Z,9.57
2023-02-02T06:51:09.722Z,4.55
2023-02-02T06:53:36.391Z,7.35
2023-02-02T06:56:06.606Z,3.90
2023-02-02T06:58:34.435Z,5.75
2023-02-02T07:01:19.095Z,5.82
2023-02-02T07:03:50.141Z,4.07
2023-02-02T07:06:19.769Z,4.53
2023-02-02T07:08:51.612Z,4.32
2023-02-02T07:11:29.048Z,6.20
2023-02-02T07:13:55.832Z,3.75
2023-02-02T07:16:22.527Z,4.50
2023-02-02T07:18:49.376Z,6.75
2023-02-02T07:21:19.206Z,6.78
2023-02-02T07:23:46.665Z,3.20
2023-02-02T07:26:14.412Z,4.95
2023-02-02T07:28:41.547Z,3.28
2023-02-02T07:31:17.983Z,4.45
2023-02-02T07:33:46.006Z,5.80
2023-02-02T07:36:16.267Z,5.53
2023-02-02T07:38:44.079Z,4.38
2023-02-02T07:41:10.811Z,5.82
2023-02-02T07:43:37.993Z,4.90
2023-02-02T07:46:10.697Z,3.70
2023-02-02T07:48:37.433Z,4.18
2023-02-02T07:51:10.021Z,3.70
2023-02-02T07:53:36.658Z,4.75
2023-02-02T07:56:11.789Z,4.43
2023-02-02T07:58:38.672Z,2.67
2023-02-02T08:01:07.638Z,3.88
2023-02-02T08:03:35.186Z,3.53
2023-02-02T08:06:08.552Z,4.15
2023-02-02T08:08:35.253Z,3.30
2023-02-02T08:11:01.816Z,4.72
2023-02-02T08:13:28.443Z,3.72
2023-02-02T08:15:58.321Z,5.45
2023-02-02T08:18:25.451Z,3.65
2023-02-02T08:20:52.668Z,4.15
2023-02-02T08:23:23.472Z,3.22
2023-02-02T08:25:51.047Z,3.03
2023-02-02T08:28:19.033Z,3.70
2023-02-02T08:30:45.960Z,3.55
2023-02-02T08:33:13.395Z,3.83
2023-02-02T08:35:43.940Z,4.40
2023-02-02T08:38:10.698Z,3.70
2023-02-02T08:40:37.571Z,5.55
2023-02-02T08:43:04.531Z,3.60
2023-02-02T08:46:12.817Z,3.97
2023-02-02T08:48:19.769Z,4.72
2023-02-02T08:50:52.348Z,2.83
2023-02-02T08:55:45.582Z,3.80
2023-02-02T08:58:12.267Z,4.55
2023-02-02T09:00:38.908Z,2.65
2023-02-02T09:03:05.553Z,2.97
2023-02-02T09:05:32.330Z,4.28
2023-02-02T09:07:59.552Z,4.63
2023-02-02T09:10:26.222Z,4.43
2023-02-02T09:12:52.821Z,3.38
2023-02-02T09:15:19.434Z,3.17
2023-02-02T09:17:46.027Z,4.15
2023-02-02T09:20:12.988Z,3.35
2023-02-02T09:22:39.616Z,3.92
2023-02-02T09:25:06.661Z,4.65
2023-02-02T09:27:37.606Z,3.05
2023-02-02T09:30:05.070Z,3.50
2023-02-02T09:32:31.991Z,3.97
2023-02-02T09:35:00.280Z,3.80
2023-02-02T09:37:27.499Z,4.30
2023-02-02T09:39:54.197Z,3.70
2023-02-02T09:42:34.886Z,2.55
2023-02-02T09:45:45.274Z,3.65
2023-02-02T09:48:30.292Z,3.50
2023-02-02T09:51:03.633Z,3.83
2023-02-02T09:53:55.635Z,3.75
2023-02-02T09:58:55.453Z,3.97
2023-02-02T10:01:33.902Z,4.70
2023-02-02T10:04:04.260Z,5.55
2023-02-02T10:06:38.487Z,4.30
2023-02-02T10:09:42.035Z,2.97
2023-02-02T10:12:40.802Z,5.28
2023-02-02T10:15:27.351Z,5.43
2023-02-02T10:18:31.598Z,2.40
2023-02-02T10:21:02.336Z,3.20
2023-02-02T10:23:44.326Z,3.67
2023-02-02T10:26:42.170Z,4.07
2023-02-02T10:29:14.529Z,3.75
2023-02-02T10:32:08.766Z,5.60
2023-02-02T10:34:41.506Z,4.05
2023-02-02T10:37:20.228Z,5.32
2023-02-02T10:39:52.707Z,3.65
2023-02-02T10:42:34.607Z,3.88
2023-02-02T10:45:20.446Z,2.65
2023-02-02T10:47:47.385Z,3.88
2023-02-02T10:50:14.016Z,2.45
2023-02-02T10:52:48.464Z,4.75
2023-02-02T10:55:35.334Z,4.32
2023-02-02T10:58:14.048Z,2.72
2023-02-02T11:00:46.583Z,3.72
2023-02-02T11:03:15.845Z,3.10
2023-02-02T11:06:00.961Z,3.03
2023-02-02T11:08:40.336Z,4.75
2023-02-02T11:11:32.874Z,3.50
2023-02-02T11:14:13.138Z,3.58
2023-02-02T11:16:45.261Z,2.97
2023-02-02T11:19:17.639Z,4.60
2023-02-02T11:21:58.938Z,4.40
2023-02-02T11:24:46.347Z,3.27
2023-02-02T11:27:17.505Z,3.58
2023-02-02T11:29:51.198Z,3.40
2023-02-02T11:32:32.939Z,2.53
2023-02-02T11:35:08.412Z,4.47
2023-02-02T11:37:37.234Z,2.47
2023-02-02T11:40:35.606Z,3.40
2023-02-02T11:43:34.193Z,3.75
2023-02-02T11:46:05.204Z,2.75
2023-02-02T11:48:35.757Z,3.42
2023-02-02T11:51:03.726Z,4.53
2023-02-02T11:53:38.966Z,2.50
2023-02-02T11:56:18.556Z,3.47
2023-02-02T11:58:47.796Z,2.88
2023-02-02T12:01:28.506Z,2.17
2023-02-02T12:04:18.631Z,3.33
2023-02-02T12:06:45.720Z,2.45
2023-02-02T12:09:19.620Z,3.85
2023-02-02T12:12:17.407Z,4.30
2023-02-02T12:14:57.792Z,3.08
2023-02-02T12:17:40.464Z,3.80
2023-02-02T12:20:33.404Z,2.90
2023-02-02T12:23:33.975Z,3.25
2023-02-02T12:26:04.365Z,3.85
2023-02-02T12:28:45.761Z,4.07
2023-02-02T12:31:28.487Z,3.63
2023-02-02T12:34:19.212Z,4.93
2023-02-02T12:37:15.356Z,2.33
2023-02-02T12:39:51.232Z,4.75
2023-02-02T12:42:24.306Z,3.75
2023-02-02T12:45:12.079Z,2.78
2023-02-02T12:47:51.699Z,3.40
2023-02-02T12:50:31.741Z,3.00
2023-02-02T12:53:35.285Z,2.97
2023-02-02T12:56:14.878Z,3.10
2023-02-02T12:59:18.375Z,2.78
2023-02-02T13:02:04.755Z,2.42
2023-02-02T13:04:44.432Z,2.50
2023-02-02T13:07:20.151Z,3.08
2023-02-02T13:10:00.937Z,1.92
2023-02-02T13:12:29.871Z,3.38
2023-02-02T13:15:02.465Z,3.88
2023-02-02T13:17:53.701Z,3.17
2023-02-02T13:20:46.278Z,4.05
2023-02-02T13:23:19.058Z,2.95
2023-02-02T13:26:17.459Z,3.78
2023-02-02T13:29:10.226Z,2.83
2023-02-02T13:31:55.211Z,2.55
2023-02-02T13:34:40.953Z,2.85
2023-02-02T13:37:37.337Z,3.15
2023-02-02T13:40:18.256Z,3.45
2023-02-02T13:43:08.979Z,2.40
2023-02-02T13:46:06.342Z,1.58
2023-02-02T13:48:48.336Z,2.65
2023-02-02T13:51:35.900Z,2.38
2023-02-02T13:54:11.622Z,3.85
2023-02-02T13:57:09.544Z,2.70
2023-02-02T13:59:54.221Z,2.22
2023-02-02T14:02:34.580Z,2.40
2023-02-02T14:05:05.352Z,2.63
2023-02-02T14:07:44.239Z,2.35
2023-02-02T14:10:45.048Z,2.63
2023-02-02T14:13:37.063Z,3.10
2023-02-02T14:16:06.067Z,2.85
2023-02-02T14:18:52.792Z,2.60
2023-02-02T14:21:39.589Z,2.75
2023-02-02T14:24:24.336Z,2.70
2023-02-02T14:27:18.750Z,1.88
2023-02-02T14:29:46.770Z,4.40
2023-02-02T14:32:28.657Z,3.00
2023-02-02T14:34:55.534Z,2.47
2023-02-02T14:37:25.139Z,2.05
2023-02-02T14:40:29.904Z,2.78
2023-02-02T14:43:42.327Z,5.82
2023-02-02T14:46:14.915Z,2.03
2023-02-02T14:48:49.152Z,2.75
2023-02-02T14:51:22.224Z,2.22
2023-02-02T14:53:54.764Z,2.25
2023-02-02T14:56:38.555Z,1.33
2023-02-02T14:59:07.409Z,2.83
2023-02-02T15:01:37.167Z,3.22
2023-02-02T15:04:22.030Z,2.17
2023-02-02T15:06:51.149Z,2.25
2023-02-02T15:09:20.734Z,2.95
2023-02-02T15:12:02.004Z,2.35
2023-02-02T15:14:56.909Z,2.43
2023-02-02T15:17:41.805Z,2.35
2023-02-02T15:20:26.390Z,3.92
2023-02-02T15:23:17.343Z,2.30
2023-02-02T15:25:51.568Z,2.75
2023-02-02T15:28:25.023Z,2.92
2023-02-02T15:30:58.324Z,1.75
2023-02-02T15:33:39.477Z,3.47
2023-02-02T15:36:20.408Z,3.15
2023-02-02T15:38:50.597Z,2.88
2023-02-02T15:41:27.713Z,2.50
2023-02-02T15:43:54.315Z,2.17
2023-02-02T15:46:27.644Z,2.35
2023-02-02T15:49:35.804Z,2.53
2023-02-02T15:52:26.989Z,1.98
2023-02-02T15:54:58.486Z,3.08
2023-02-02T15:57:36.381Z,3.05
2023-02-02T16:00:27.752Z,3.03
2023-02-02T16:03:01.843Z,3.00
2023-02-02T16:05:31.524Z,3.25
2023-02-02T16:08:06.654Z,2.00
2023-02-02T16:10:35.156Z,2.45
2023-02-02T16:13:02.517Z,2.28
2023-02-02T16:15:31.693Z,3.05
2023-02-02T16:18:04.275Z,3.20
2023-02-02T16:20:35.210Z,4.28
2023-02-02T16:23:05.915Z,6.38
2023-02-02T16:25:36.653Z,5.30
2023-02-02T16:28:09.345Z,11.20
2023-02-02T16:30:39.973Z,6.55
2023-02-02T16:33:34.903Z,4.70
2023-02-02T16:36:04.501Z,4.55
2023-02-02T16:38:34.977Z,3.43
2023-02-02T16:41:08.908Z,8.85
2023-02-02T16:43:37.896Z,5.85
2023-02-02T16:46:11.848Z,5.75
2023-02-02T16:48:44.414Z,5.93
2023-02-02T16:51:17.105Z,5.07
2023-02-02T16:53:47.912Z,4.75
2023-02-02T16:56:43.376Z,6.50
2023-02-02T16:59:16.220Z,5.53
2023-02-02T17:01:49.657Z,6.90
2023-02-02T17:04:28.522Z,3.55
2023-02-02T17:06:57.914Z,6.75
2023-02-02T17:09:31.899Z,4.38
2023-02-02T17:12:09.350Z,4.55
2023-02-02T17:14:53.364Z,4.53
2023-02-02T17:17:20.064Z,4.28
2023-02-02T17:19:47.820Z,4.25
2023-02-02T17:22:15.988Z,8.93
2023-02-02T17:24:45.932Z,5.00
2023-02-02T17:27:17.515Z,2.83
2023-02-02T17:29:45.583Z,6.63
2023-02-02T17:32:13.705Z,4.68
2023-02-02T17:34:40.335Z,5.47
2023-02-02T17:37:07.038Z,4.25
2023-02-02T17:39:33.598Z,4.65
2023-02-02T17:42:00.278Z,4.85
2023-02-02T17:44:27.318Z,2.83
2023-02-02T17:46:53.944Z,9.40
2023-02-02T17:49:20.571Z,21.05
2023-02-02T17:51:47.277Z,28.95
2023-02-02T17:54:15.333Z,28.73
2023-02-02T17:56:46.713Z,33.40
2023-02-02T17:59:13.367Z,28.95
2023-02-02T18:01:41.879Z,24.55
2023-02-02T18:04:12.736Z,26.27
2023-02-02T18:06:40.057Z,20.65
2023-02-02T18:09:07.023Z,23.52
2023-02-02T18:11:33.637Z,24.00
2023-02-02T18:14:00.306Z,22.05
2023-02-02T18:16:26.892Z,23.00
2023-02-02T18:18:54.312Z,21.52
2023-02-02T18:21:21.349Z,21.85
2023-02-02T18:23:48.962Z,20.23
2023-02-02T18:26:18.824Z,22.63
2023-02-02T18:28:48.725Z,20.23
2023-02-02T18:31:19.822Z,22.45
2023-02-02T18:33:47.333Z,21.33
2023-02-02T18:36:18.760Z,19.35
2023-02-02T18:38:48.261Z,16.05
2023-02-02T18:41:16.840Z,17.65
2023-02-02T18:43:44.562Z,21.23
2023-02-02T18:46:15.796Z,17.10
2023-02-02T18:48:43.051Z,16.67
2023-02-02T18:51:15.895Z,16.38
2023-02-02T18:53:48.360Z,19.52
2023-02-02T18:56:15.228Z,17.33
2023-02-02T18:58:44.742Z,16.65
2023-02-02T19:01:13.928Z,15.82
2023-02-02T19:03:41.118Z,15.32
2023-02-02T19:06:27.381Z,15.48
2023-02-02T19:08:55.177Z,16.20
2023-02-02T19:11:24.214Z,15.00
2023-02-02T19:13:51.035Z,15.90
2023-02-02T19:16:33.318Z,12.98
2023-02-02T19:21:41.381Z,16.35
2023-02-02T19:24:13.115Z,13.02
2023-02-02T19:26:45.833Z,13.43
2023-02-02T19:29:18.288Z,13.50
2023-02-02T19:31:45.728Z,13.75
2023-02-02T19:34:17.926Z,11.35
2023-02-02T19:36:46.873Z,15.80
2023-02-02T19:39:18.674Z,11.40
2023-02-02T19:41:45.322Z,12.85
2023-02-02T19:44:19.391Z,11.32
2023-02-02T19:46:49.585Z,12.75
2023-02-02T19:49:31.801Z,13.90
2023-02-02T19:54:38.203Z,12.65
2023-02-02T19:57:07.667Z,13.88
2023-02-02T19:59:35.431Z,17.75
2023-02-02T20:02:41.016Z,13.32
2023-02-02T20:05:40.859Z,14.20
2023-02-02T20:08:26.771Z,13.25
2023-02-02T20:11:00.807Z,12.23
2023-02-02T20:13:47.728Z,16.65
2023-02-02T20:16:22.533Z,14.18
2023-02-02T20:18:53.971Z,13.25
2023-02-02T20:21:34.060Z,14.30
2023-02-02T20:24:01.097Z,12.98
2023-02-02T20:26:34.021Z,14.25
2023-02-02T20:29:12.898Z,13.88
2023-02-02T20:31:40.322Z,12.20
2023-02-02T20:34:30.927Z,12.40
2023-02-02T20:37:22.774Z,15.05
2023-02-02T20:39:54.480Z,15.57
2023-02-02T20:42:22.121Z,13.52
2023-02-02T20:44:49.206Z,11.80
2023-02-02T20:47:16.119Z,11.60
2023-02-02T20:49:43.542Z,11.63
2023-02-02T20:52:17.917Z,11.55
2023-02-02T20:54:44.613Z,14.80
2023-02-02T20:57:11.313Z,14.35
2023-02-02T20:59:37.928Z,14.48
2023-02-02T21:02:05.383Z,12.82
2023-02-02T21:04:32.403Z,13.82
2023-02-02T21:07:01.797Z,14.32
2023-02-02T21:09:28.454Z,16.80
2023-02-02T21:11:55.095Z,16.08
2023-02-02T21:14:21.733Z,15.43
2023-02-02T21:16:48.355Z,15.13
2023-02-02T21:19:15.111Z,14.20
2023-02-02T21:21:41.863Z,16.05
2023-02-02T21:24:08.731Z,15.73
2023-02-02T21:26:35.354Z,18.48
2023-02-02T21:29:01.961Z,16.38
2023-02-02T21:31:28.949Z,15.05
2023-02-02T21:33:55.694Z,14.38
2023-02-02T21:36:46.156Z,12.52
2023-02-02T21:39:21.961Z,10.63
2023-02-02T21:42:07.690Z,12.95
2023-02-02T21:45:19.124Z,23.05
2023-02-02T21:47:51.318Z,15.98
2023-02-02T21:50:20.755Z,13.20
2023-02-02T21:52:47.600Z,18.00
2023-02-02T21:55:38.060Z,15.63
2023-02-02T21:58:17.686Z,15.60
2023-02-02T22:00:45.716Z,20.33
2023-02-02T22:03:33.190Z,13.60
2023-02-02T22:06:26.066Z,14.02
2023-02-02T22:09:21.219Z,16.67
2023-02-02T22:11:50.911Z,12.23
2023-02-02T22:14:18.975Z,16.25
2023-02-02T22:16:50.182Z,11.60
2023-02-02T22:19:38.295Z,11.05
2023-02-02T22:22:25.469Z,12.07
2023-02-02T22:25:29.707Z,11.95
2023-02-02T22:28:01.302Z,13.73
2023-02-02T22:30:37.164Z,11.38
2023-02-02T22:33:11.658Z,10.68
2023-02-02T22:35:39.003Z,12.13
2023-02-02T22:38:06.358Z,13.25
2023-02-02T22:40:33.149Z,13.25
2023-02-02T22:43:03.876Z,10.23
2023-02-02T22:45:30.450Z,11.25
2023-02-02T22:47:57.175Z,9.98
2023-02-02T22:50:29.628Z,11.70
2023-02-02T22:52:56.686Z,10.55
2023-02-02T22:55:23.462Z,10.63
2023-02-02T22:57:50.547Z,11.65
2023-02-02T23:00:23.149Z,12.27
2023-02-02T23:02:50.189Z,12.63
2023-02-02T23:05:19.039Z,10.07
2023-02-02T23:07:48.146Z,8.52
2023-02-02T23:10:19.133Z,9.55
2023-02-02T23:12:47.181Z,9.52
2023-02-02T23:15:14.928Z,11.48
2023-02-02T23:17:42.163Z,9.50
2023-02-02T23:20:11.669Z,8.85
2023-02-02T23:22:39.916Z,7.88
2023-02-02T23:25:07.027Z,9.65
2023-02-02T23:27:34.024Z,8.27
2023-02-02T23:30:00.621Z,8.30
2023-02-02T23:32:28.033Z,8.77
2023-02-02T23:34:54.745Z,8.93
2023-02-02T23:37:21.288Z,8.48
2023-02-02T23:39:47.970Z,9.45
2023-02-02T23:42:14.646Z,7.88
2023-02-02T23:44:41.266Z,8.80
2023-02-02T23:47:10.478Z,7.32
2023-02-02T23:49:38.092Z,9.18
2023-02-02T23:52:05.030Z,8.27
2023-02-02T23:54:33.097Z,7.53
2023-02-02T23:56:59.977Z,9.43
2023-02-02T23:59:26.649Z,10.95
